Time;durP1;ratioP1;P1;durP2;ratioP2;P2;SDS_P1;SDS_P2;PMS_P1;PMS_P2;Temp;Humidity;BMP_temperature;BMP_pressure;BME280_temperature;BME280_humidity;BME280_pressure;Samples;Min_cycle;Max_cycle;Signal;HPM_P1;HPM_P2
2022/02/17 00:00:52;;;;;;;46.40;40.63;;;;;;;8.05;69.19;101269.31;2097238;28;20205;-67
2022/02/17 00:01:52;;;;;;;47.07;40.63;;;;;;;8.04;69.03;101271.25;2097273;28;20434;-66
2022/02/17 00:02:53;;;;;;;48.23;40.60;;;;;;;7.83;69.22;101240.97;2096371;28;20180;-66
2022/02/17 00:03:54;;;;;;;45.97;39.97;;;;;;;8.03;68.88;101260.63;2096858;28;20203;-66
2022/02/17 00:04:54;;;;;;;47.83;39.63;;;;;;;7.65;68.73;101195.31;2096747;28;20260;-66
2022/02/17 00:05:56;;;;;;;45.67;39.07;;;;;;;8.01;68.96;101266.56;2097044;28;20238;-66
2022/02/17 00:06:56;;;;;;;44.55;39.75;;;;;;;7.97;69.15;101254.72;2096457;28;20185;-66
2022/02/17 00:07:57;;;;;;;48.13;39.60;;;;;;;7.96;69.00;101253.16;2096743;28;20192;-67
2022/02/17 00:08:58;;;;;;;45.17;39.20;;;;;;;7.95;69.18;101253.56;2097052;28;20187;-66
2022/02/17 00:09:59;;;;;;;45.43;39.17;;;;;;;7.95;69.72;101253.56;2097314;28;20196;-65
2022/02/17 00:10:59;;;;;;;42.87;37.40;;;;;;;7.96;69.05;101249.59;2097116;28;20282;-67
2022/02/17 00:12:00;;;;;;;42.90;37.97;;;;;;;7.95;69.32;101254.31;2097861;28;20646;-67
2022/02/17 00:13:01;;;;;;;43.30;37.27;;;;;;;6.96;69.42;101092.28;2098894;28;20240;-66
2022/02/17 00:14:01;;;;;;;46.30;38.37;;;;;;;7.65;69.38;101201.63;2098476;28;20628;-67
2022/02/17 00:15:03;;;;;;;43.07;38.33;;;;;;;7.15;69.40;101119.41;2098130;28;20210;-66
2022/02/17 00:16:04;;;;;;;43.10;38.08;;;;;;;7.87;69.50;101236.25;2098945;28;20179;-66
2022/02/17 00:17:05;;;;;;;46.23;38.17;;;;;;;7.78;69.13;101238.63;2097150;28;20213;-67
2022/02/17 00:18:21;;;;;;;47.40;40.20;;;;;;;7.75;69.50;101236.66;2098837;28;20270;-66
2022/02/17 00:19:22;;;;;;;46.38;38.90;;;;;;;7.62;69.69;101210.69;2098785;28;20160;-67
2022/02/17 00:20:24;;;;;;;46.20;39.67;;;;;;;7.66;69.85;101224.47;2098988;28;20188;-67
2022/02/17 00:21:24;;;;;;;47.72;39.67;;;;;;;7.73;69.81;101238.22;2098086;28;20214;-66
2022/02/17 00:22:25;;;;;;;43.57;38.77;;;;;;;7.71;69.58;101243.38;2098883;28;20187;-66
2022/02/17 00:23:26;;;;;;;45.28;38.05;;;;;;;7.71;69.61;101238.66;2098220;28;20649;-67
2022/02/17 00:24:27;;;;;;;43.60;37.80;;;;;;;7.70;69.50;101241.81;2098982;28;20204;-66
2022/02/17 00:25:27;;;;;;;44.53;37.20;;;;;;;7.58;70.05;101231.97;2097301;28;20176;-66
2022/02/17 00:26:28;;;;;;;42.73;36.30;;;;;;;7.52;70.39;101241.84;2098888;28;20258;-66
2022/02/17 00:27:28;;;;;;;44.00;37.00;;;;;;;7.49;70.40;101236.34;2098282;28;20700;-66
2022/02/17 00:28:29;;;;;;;42.50;36.67;;;;;;;7.48;70.35;101245.78;2098939;28;20733;-66
2022/02/17 00:29:30;;;;;;;42.90;36.47;;;;;;;7.48;70.22;101246.56;2098800;28;20650;-66
2022/02/17 00:30:31;;;;;;;46.15;38.83;;;;;;;7.14;70.80;101187.53;2098262;28;20186;-66
2022/02/17 00:31:31;;;;;;;42.63;36.03;;;;;;;7.49;70.71;101239.84;2098584;28;20243;-66
2022/02/17 00:32:32;;;;;;;42.70;36.17;;;;;;;6.96;70.53;101159.19;2099026;28;20718;-66
2022/02/17 00:33:33;;;;;;;39.80;34.90;;;;;;;7.50;71.09;101237.91;2098184;28;20183;-67
2022/02/17 00:34:33;;;;;;;42.23;36.57;;;;;;;7.50;70.75;101238.69;2098073;28;20219;-66
2022/02/17 00:35:34;;;;;;;42.20;35.63;;;;;;;7.49;70.53;101252.88;2097732;28;20190;-67
2022/02/17 00:36:34;;;;;;;40.97;35.27;;;;;;;7.49;70.29;101239.09;2098321;28;20696;-66
2022/02/17 00:37:35;;;;;;;40.33;34.97;;;;;;;7.48;70.53;101235.53;2098638;28;20254;-67
2022/02/17 00:38:35;;;;;;;41.80;35.93;;;;;;;7.48;70.38;101232.78;2098666;28;20180;-66
2022/02/17 00:39:36;;;;;;;41.33;36.07;;;;;;;7.47;70.67;101224.88;2089140;28;20261;-66
2022/02/17 00:40:36;;;;;;;41.07;35.27;;;;;;;6.59;70.43;101086.41;2089984;28;20188;-67
2022/02/17 00:41:37;;;;;;;42.30;34.37;;;;;;;7.26;70.89;101191.84;2098159;28;20246;-66
2022/02/17 00:42:38;;;;;;;43.90;35.43;;;;;;;7.41;70.66;101224.53;2098332;28;20443;-66
2022/02/17 00:43:38;;;;;;;41.10;35.57;;;;;;;7.01;70.87;101163.50;2097539;28;20190;-66
2022/02/17 00:44:39;;;;;;;40.80;34.60;;;;;;;7.37;70.47;101220.97;2098636;28;20266;-66
2022/02/17 00:45:39;;;;;;;41.87;34.67;;;;;;;7.02;71.14;101171.41;2097660;28;20249;-67
2022/02/17 00:46:41;;;;;;;40.80;33.63;;;;;;;7.18;71.07;101187.53;2098115;28;20283;-67
2022/02/17 00:47:41;;;;;;;39.67;34.28;;;;;;;7.34;70.58;101209.97;2098753;28;20190;-66
2022/02/17 00:48:42;;;;;;;37.77;32.63;;;;;;;7.34;70.96;101213.47;2098012;28;20707;-66
2022/02/17 00:49:43;;;;;;;40.10;33.77;;;;;;;7.12;71.19;101200.91;2098721;28;20194;-66
2022/02/17 00:50:44;;;;;;;38.40;33.53;;;;;;;7.41;71.16;101221.75;2098579;28;20184;-66
2022/02/17 00:51:44;;;;;;;40.17;33.87;;;;;;;6.32;71.20;101061.28;2098587;28;20210;-66
2022/02/17 00:52:45;;;;;;;41.30;34.20;;;;;;;7.35;71.64;101226.13;2098047;28;20632;-66
2022/02/17 00:53:45;;;;;;;41.10;33.73;;;;;;;7.36;72.04;101221.38;2098003;28;20207;-67
2022/02/17 00:54:47;;;;;;;42.87;35.00;;;;;;;7.26;72.08;101216.66;2098507;28;20244;-66
2022/02/17 00:55:48;;;;;;;43.42;33.88;;;;;;;7.29;72.26;101219.41;2097916;28;20183;-66
2022/02/17 00:56:49;;;;;;;42.50;34.70;;;;;;;6.97;72.85;101163.53;2097757;28;20481;-66
2022/02/17 00:57:49;;;;;;;40.40;33.33;;;;;;;7.39;72.81;101217.84;2098079;28;20187;-67
2022/02/17 00:58:50;;;;;;;39.33;34.13;;;;;;;7.41;72.52;101218.22;2098684;28;20190;-66
2022/02/17 00:59:51;;;;;;;40.37;33.57;;;;;;;7.44;72.36;101214.66;2098594;28;20207;-66
2022/02/17 01:00:51;;;;;;;42.57;34.03;;;;;;;6.95;72.60;101160.38;2098521;28;20183;-66
2022/02/17 01:01:52;;;;;;;39.63;33.97;;;;;;;6.17;72.32;101031.38;2098060;28;20951;-66
2022/02/17 01:02:52;;;;;;;42.93;33.97;;;;;;;7.07;72.37;101193.03;2098465;28;20271;-67
2022/02/17 01:03:53;;;;;;;41.60;33.57;;;;;;;7.43;72.87;101221.38;2098156;28;20175;-66
2022/02/17 01:04:54;;;;;;;41.20;33.40;;;;;;;7.31;72.42;101185.94;2097926;28;20260;-66
2022/02/17 01:05:54;;;;;;;41.30;34.23;;;;;;;6.91;71.92;101112.75;2098077;28;20664;-66
2022/02/17 01:06:55;;;;;;;38.70;33.63;;;;;;;7.52;71.59;101211.50;2097243;28;20214;-66
2022/02/17 01:07:56;;;;;;;39.50;33.17;;;;;;;7.56;71.37;101203.22;2098546;28;20420;-67
2022/02/17 01:08:56;;;;;;;38.03;31.67;;;;;;;6.86;71.41;101087.56;2098304;28;20621;-66
2022/02/17 01:09:57;;;;;;;41.77;32.53;;;;;;;7.62;70.62;101201.63;2098451;28;20186;-67
2022/02/17 01:10:57;;;;;;;43.13;30.73;;;;;;;7.60;70.61;101199.28;2097937;28;20654;-67
2022/02/17 01:11:58;;;;;;;39.33;31.43;;;;;;;7.58;70.02;101192.59;2098598;28;20275;-67
2022/02/17 01:12:59;;;;;;;36.80;30.10;;;;;;;7.59;69.98;101205.19;2098442;28;20191;-66
2022/02/17 01:14:00;;;;;;;39.30;31.33;;;;;;;7.59;70.16;101196.91;2098045;28;20191;-67
2022/02/17 01:15:00;;;;;;;39.67;31.13;;;;;;;7.60;69.88;101190.19;2097706;28;20486;-67
2022/02/17 01:16:01;;;;;;;35.87;30.80;;;;;;;7.20;70.07;101141.06;2097967;28;20668;-66
2022/02/17 01:17:02;;;;;;;34.00;28.70;;;;;;;7.53;70.01;101185.50;2097879;28;20199;-66
2022/02/17 01:18:03;;;;;;;33.90;29.10;;;;;;;7.59;69.98;101194.16;2098455;28;20185;-67
2022/02/17 01:19:04;;;;;;;36.37;29.83;;;;;;;7.58;70.20;101193.34;2098426;28;20504;-66
2022/02/17 01:20:07;;;;;;;33.85;29.70;;;;;;;7.00;69.57;101115.91;2097994;28;20710;-67
2022/02/17 01:21:07;;;;;;;38.17;31.05;;;;;;;6.70;70.06;101062.41;2098281;28;20198;-66
2022/02/17 01:22:08;;;;;;;35.13;31.07;;;;;;;7.60;70.01;101195.72;2098342;28;20187;-67
2022/02/17 01:23:09;;;;;;;39.00;30.40;;;;;;;7.60;70.24;101192.97;2098204;28;20187;-66
2022/02/17 01:24:10;;;;;;;35.10;30.30;;;;;;;7.54;70.05;101189.81;2097472;28;20187;-67
2022/02/17 01:25:11;;;;;;;33.50;29.37;;;;;;;7.54;69.93;101189.03;2097579;28;20469;-67
2022/02/17 01:26:13;;;;;;;35.50;30.98;;;;;;;7.62;70.11;101194.13;2098515;28;20187;-67
2022/02/17 01:27:14;;;;;;;36.38;30.15;;;;;;;7.63;70.31;101192.94;2088493;28;20195;-66
2022/02/17 01:28:14;;;;;;;36.50;30.73;;;;;;;7.62;70.40;101193.34;2089430;28;20192;-67
2022/02/17 01:29:15;;;;;;;35.60;29.60;;;;;;;7.57;70.15;101211.09;2097675;28;20633;-66
2022/02/17 01:30:15;;;;;;;32.50;28.23;;;;;;;7.52;70.54;101183.13;2098463;28;20252;-66
2022/02/17 01:31:18;;;;;;;32.80;28.60;;;;;;;6.67;69.97;101046.69;2098197;28;20669;-66
2022/02/17 01:32:19;;;;;;;38.63;32.17;;;;;;;7.60;70.40;101184.69;2098432;28;20573;-67
2022/02/17 01:33:19;;;;;;;32.93;28.33;;;;;;;7.63;70.39;101183.91;2097882;28;20183;-67
2022/02/17 01:34:20;;;;;;;32.77;28.87;;;;;;;7.61;69.82;101178.78;2097968;28;20190;-66
2022/02/17 01:35:20;;;;;;;34.03;29.77;;;;;;;7.60;69.75;101173.66;2097609;28;20272;-67
2022/02/17 01:36:21;;;;;;;33.37;29.50;;;;;;;7.59;69.73;101172.09;2098196;28;20187;-67
2022/02/17 01:37:21;;;;;;;34.13;29.60;;;;;;;7.63;69.67;101167.34;2097810;28;20244;-66
2022/02/17 01:38:22;;;;;;;33.83;30.07;;;;;;;7.19;69.75;101095.38;2088802;28;20732;-66
2022/02/17 01:39:23;;;;;;;36.73;30.50;;;;;;;7.66;70.16;101161.81;2089436;28;20183;-67
2022/02/17 01:40:24;;;;;;;36.65;29.95;;;;;;;7.69;70.11;101157.47;2098021;28;20187;-66
2022/02/17 01:41:25;;;;;;;34.73;30.13;;;;;;;7.69;70.17;101161.00;2097749;28;20224;-66
2022/02/17 01:42:25;;;;;;;35.40;30.43;;;;;;;7.72;70.10;101151.13;2097326;28;20188;-66
2022/02/17 01:43:26;;;;;;;34.67;30.80;;;;;;;7.56;70.38;101125.97;2088782;28;20228;-66
2022/02/17 01:44:27;;;;;;;37.27;31.50;;;;;;;7.70;70.32;101142.50;2089556;28;20649;-66
2022/02/17 01:45:27;;;;;;;34.93;30.77;;;;;;;7.73;69.95;101134.19;2097404;28;20228;-67
2022/02/17 01:46:39;;;;;;;34.80;30.87;;;;;;;7.71;70.14;101131.06;2098273;28;20199;-66
2022/02/17 01:47:45;;;;;;;34.83;30.33;;;;;;;7.70;70.64;101121.19;2088741;28;20200;-67
2022/02/17 01:48:45;;;;;;;36.13;30.52;;;;;;;7.69;70.59;101116.88;2089306;28;20682;-67
2022/02/17 01:49:49;;;;;;;36.63;30.20;;;;;;;7.69;70.46;101113.34;2097510;28;20250;-67
2022/02/17 01:50:50;;;;;;;37.90;31.95;;;;;;;7.67;70.37;101121.22;2097559;28;20183;-66
2022/02/17 01:51:51;;;;;;;39.10;32.17;;;;;;;7.56;70.00;101090.94;2097523;28;20303;-66
2022/02/17 01:52:51;;;;;;;35.87;31.90;;;;;;;7.67;70.51;101107.41;2098224;28;20231;-67
2022/02/17 01:53:52;;;;;;;37.53;31.93;;;;;;;7.66;70.50;101112.16;2097783;28;20192;-66
2022/02/17 01:54:52;;;;;;;36.87;31.83;;;;;;;7.59;69.97;101108.66;2097835;28;20195;-66
2022/02/17 01:55:55;;;;;;;39.50;32.93;;;;;;;7.55;70.27;101099.59;2097239;28;20193;-67
2022/02/17 01:56:57;;;;;;;37.95;32.70;;;;;;;7.60;69.96;101116.53;2097272;28;20629;-66
2022/02/17 01:57:59;;;;;;;38.25;33.47;;;;;;;7.46;69.33;101096.47;2098142;28;20192;-67
2022/02/17 01:59:05;;;;;;;37.05;32.95;;;;;;;7.54;69.79;101120.88;2098189;28;20199;-66
2022/02/17 02:00:06;;;;;;;38.60;32.03;;;;;;;7.05;69.44;101051.31;2098163;28;20180;-66
2022/02/17 02:01:07;;;;;;;37.95;32.15;;;;;;;7.49;69.53;101123.25;2097586;28;20191;-66
2022/02/17 02:02:08;;;;;;;36.38;31.20;;;;;;;7.40;70.10;101118.19;2098169;28;20184;-66
2022/02/17 02:03:10;;;;;;;35.33;31.50;;;;;;;7.42;70.13;101120.50;2097881;28;20188;-67
2022/02/17 02:04:11;;;;;;;35.65;31.27;;;;;;;6.99;69.98;101053.72;2097702;28;20589;-66
2022/02/17 02:05:11;;;;;;;37.13;31.63;;;;;;;7.13;69.36;101091.47;2087771;28;20204;-66
2022/02/17 02:06:12;;;;;;;37.93;32.37;;;;;;;7.31;69.16;101117.00;2089390;28;20766;-66
2022/02/17 02:07:13;;;;;;;38.50;31.37;;;;;;;7.36;69.59;101116.59;2097350;28;20192;-67
2022/02/17 02:08:14;;;;;;;36.22;31.27;;;;;;;7.34;69.18;101113.47;2089240;28;20262;-67
2022/02/17 02:09:16;;;;;;;34.73;29.63;;;;;;;7.30;69.38;101109.91;2088983;28;20226;-66
2022/02/17 02:10:16;;;;;;;37.65;32.25;;;;;;;7.26;69.74;101107.19;2088270;28;20196;-67
2022/02/17 02:11:18;;;;;;;35.30;30.57;;;;;;;7.23;69.22;101099.69;2088986;28;20216;-67
2022/02/17 02:12:19;;;;;;;34.63;30.15;;;;;;;7.21;69.72;101099.31;2098091;28;20187;-66
2022/02/17 02:13:19;;;;;;;35.70;29.43;;;;;;;7.15;69.55;101089.88;2097981;28;20211;-66
2022/02/17 02:14:20;;;;;;;32.07;28.67;;;;;;;7.21;69.08;101107.59;2097199;28;20340;-66
2022/02/17 02:15:20;;;;;;;35.43;30.53;;;;;;;7.17;69.17;101104.06;2097312;28;20211;-66
2022/02/17 02:16:21;;;;;;;36.97;31.57;;;;;;;7.01;68.81;101078.91;2098261;28;20197;-66
2022/02/17 02:17:23;;;;;;;37.67;31.93;;;;;;;7.09;69.21;101105.25;2097202;28;20180;-66
2022/02/17 02:18:23;;;;;;;36.83;31.20;;;;;;;7.09;69.50;101104.47;2097441;28;20634;-67
2022/02/17 02:19:24;;;;;;;37.67;31.37;;;;;;;7.06;69.32;101111.56;2097814;28;20183;-67
2022/02/17 02:20:24;;;;;;;38.10;32.87;;;;;;;6.51;69.09;101021.53;2098069;28;20233;-66
2022/02/17 02:21:25;;;;;;;37.97;33.73;;;;;;;6.99;69.92;101099.75;2097949;28;20264;-66
2022/02/17 02:22:31;;;;;;;38.67;34.13;;;;;;;6.91;69.81;101096.22;2097897;28;20244;-67
2022/02/17 02:23:32;;;;;;;40.70;34.83;;;;;;;6.96;70.16;101106.84;2097037;28;20190;-66
2022/02/17 02:24:33;;;;;;;38.85;34.10;;;;;;;6.83;69.75;101082.88;2097893;28;20184;-66
2022/02/17 02:25:33;;;;;;;39.87;33.67;;;;;;;6.57;70.16;101048.25;2097226;28;20314;-67
2022/02/17 02:26:34;;;;;;;38.37;33.53;;;;;;;6.93;69.85;101102.13;2097497;28;20238;-66
2022/02/17 02:27:35;;;;;;;39.93;33.73;;;;;;;6.93;69.95;101107.63;2097080;28;20188;-67
2022/02/17 02:28:35;;;;;;;38.37;33.63;;;;;;;6.91;69.51;101092.69;2097874;28;20186;-66
2022/02/17 02:29:36;;;;;;;37.73;32.97;;;;;;;6.83;70.16;101091.91;2097960;28;20270;-67
2022/02/17 02:30:37;;;;;;;37.80;32.40;;;;;;;6.77;70.29;101087.22;2089069;28;20188;-66
2022/02/17 02:31:38;;;;;;;39.00;33.70;;;;;;;6.75;70.57;101090.34;2088805;28;20218;-67
2022/02/17 02:32:38;;;;;;;37.53;33.50;;;;;;;6.77;70.75;101092.72;2097149;28;20537;-66
2022/02/17 02:33:43;;;;;;;38.73;32.73;;;;;;;6.76;70.20;101111.19;2097107;28;20230;-66
2022/02/17 02:34:44;;;;;;;38.85;34.15;;;;;;;6.76;70.08;101099.41;2097186;28;20192;-66
2022/02/17 02:35:45;;;;;;;37.97;33.77;;;;;;;6.56;70.14;101067.94;2097195;28;20194;-67
2022/02/17 02:36:45;;;;;;;40.33;33.70;;;;;;;6.73;70.28;101092.72;2096655;28;20244;-66
2022/02/17 02:37:46;;;;;;;38.67;33.20;;;;;;;6.73;70.33;101097.44;2098135;28;20704;-66
2022/02/17 02:38:46;;;;;;;38.57;32.70;;;;;;;6.76;70.46;101099.41;2097786;28;20668;-67
2022/02/17 02:39:47;;;;;;;36.37;32.47;;;;;;;6.74;69.92;101097.03;2097855;28;20573;-67
2022/02/17 02:40:48;;;;;;;37.67;32.80;;;;;;;6.73;70.26;101113.97;2097604;28;20190;-66
2022/02/17 02:41:48;;;;;;;39.73;34.07;;;;;;;6.61;70.09;101073.06;2097347;28;20190;-66
2022/02/17 02:42:49;;;;;;;37.37;32.60;;;;;;;6.71;69.96;101091.53;2097650;28;20199;-66
2022/02/17 02:43:49;;;;;;;41.70;35.10;;;;;;;6.61;70.40;101090.34;2097359;28;20191;-67
2022/02/17 02:44:50;;;;;;;42.07;35.17;;;;;;;6.40;70.77;101087.59;2097714;28;20197;-66
2022/02/17 02:45:50;;;;;;;41.37;34.50;;;;;;;5.57;70.66;100956.22;2096332;28;20225;-66
2022/02/17 02:46:51;;;;;;;41.63;35.77;;;;;;;6.37;71.03;101084.84;2097094;28;20652;-66
2022/02/17 02:47:53;;;;;;;39.53;35.00;;;;;;;6.31;71.16;101084.44;2097703;28;20629;-66
2022/02/17 02:48:53;;;;;;;40.55;35.40;;;;;;;6.34;71.00;101080.13;2097534;28;20190;-66
2022/02/17 02:49:54;;;;;;;44.07;35.90;;;;;;;6.37;70.61;101079.34;2097727;28;20193;-66
2022/02/17 02:50:54;;;;;;;36.43;31.53;;;;;;;6.38;70.38;101078.97;2096942;28;20225;-67
2022/02/17 02:51:55;;;;;;;39.10;33.77;;;;;;;6.30;69.69;101071.09;2097786;28;20629;-67
2022/02/17 02:52:55;;;;;;;38.13;31.87;;;;;;;6.19;69.56;101053.75;2097619;28;20217;-66
2022/02/17 02:53:56;;;;;;;39.93;32.97;;;;;;;6.30;70.01;101074.63;2097184;28;20197;-67
2022/02/17 02:54:56;;;;;;;43.93;34.57;;;;;;;6.30;69.79;101073.84;2096330;28;20187;-67
2022/02/17 02:55:58;;;;;;;41.43;35.07;;;;;;;6.22;70.58;101064.81;2097787;28;20654;-66
2022/02/17 02:56:59;;;;;;;39.65;32.78;;;;;;;6.31;69.99;101078.94;2096850;28;20575;-66
2022/02/17 02:57:59;;;;;;;38.47;32.73;;;;;;;5.49;70.40;100949.94;2097604;28;20215;-66
2022/02/17 02:59:00;;;;;;;39.83;33.70;;;;;;;6.27;70.55;101082.88;2097326;28;20191;-67
2022/02/17 03:00:02;;;;;;;38.35;34.15;;;;;;;6.21;70.50;101085.22;2097558;28;20192;-66
2022/02/17 03:01:03;;;;;;;41.47;33.92;;;;;;;6.16;70.65;101073.84;2097558;28;20199;-67
2022/02/17 03:02:03;;;;;;;40.03;33.73;;;;;;;6.16;70.55;101077.34;2097723;28;20211;-66
2022/02/17 03:03:05;;;;;;;43.27;35.60;;;;;;;6.09;70.30;101082.84;2097572;28;20262;-67
2022/02/17 03:04:06;;;;;;;42.70;34.70;;;;;;;6.10;70.44;101075.41;2096844;28;20191;-67
2022/02/17 03:05:07;;;;;;;57.17;43.47;;;;;;;6.10;70.88;101087.19;2096829;28;20211;-66
2022/02/17 03:06:07;;;;;;;47.88;40.63;;;;;;;6.14;72.05;101082.47;2097627;28;20565;-66
2022/02/17 03:07:08;;;;;;;48.63;41.23;;;;;;;6.19;71.97;101081.28;2096844;28;20184;-66
2022/02/17 03:08:09;;;;;;;50.75;40.08;;;;;;;5.90;71.95;101033.69;2096990;28;20180;-66
2022/02/17 03:09:09;;;;;;;50.33;39.87;;;;;;;6.16;71.73;101076.59;2097460;28;20193;-67
2022/02/17 03:10:10;;;;;;;49.83;40.07;;;;;;;6.16;71.78;101069.09;2097643;28;20666;-67
2022/02/17 03:11:10;;;;;;;48.10;38.67;;;;;;;5.81;71.68;101013.25;2097486;28;20577;-66
2022/02/17 03:12:11;;;;;;;44.50;39.00;;;;;;;6.21;71.48;101076.19;2097722;28;20180;-66
2022/02/17 03:13:12;;;;;;;49.70;39.93;;;;;;;6.20;71.34;101075.41;2096687;28;20215;-66
2022/02/17 03:14:12;;;;;;;49.97;40.17;;;;;;;6.16;71.83;101065.56;2097188;28;20188;-66
2022/02/17 03:15:13;;;;;;;46.07;38.60;;;;;;;6.22;71.24;101081.31;2096732;28;20196;-67
2022/02/17 03:16:14;;;;;;;44.10;37.45;;;;;;;6.21;71.37;101079.72;2097548;28;20179;-66
2022/02/17 03:17:15;;;;;;;46.90;39.83;;;;;;;5.66;71.26;101017.91;2096168;28;20241;-66
2022/02/17 03:18:15;;;;;;;39.27;34.20;;;;;;;6.14;70.64;101079.72;2097672;28;20184;-66
2022/02/17 03:19:16;;;;;;;45.00;36.33;;;;;;;6.02;69.66;101071.84;2097695;28;20564;-66
2022/02/17 03:20:17;;;;;;;45.63;35.30;;;;;;;6.05;69.38;101078.53;2097660;28;20183;-66
2022/02/17 03:21:18;;;;;;;44.33;35.30;;;;;;;6.03;68.91;101080.88;2097362;28;20317;-66
2022/02/17 03:22:18;;;;;;;43.43;36.93;;;;;;;5.91;68.87;101084.81;2097114;28;20187;-66
2022/02/17 03:23:19;;;;;;;47.10;39.67;;;;;;;5.86;69.62;101081.63;2097380;28;20180;-66
2022/02/17 03:24:20;;;;;;;48.87;40.27;;;;;;;5.83;70.25;101080.44;2097125;28;20191;-66
2022/02/17 03:25:20;;;;;;;57.57;48.63;;;;;;;5.81;70.56;101079.25;2096672;28;20211;-67
2022/02/17 03:26:21;;;;;;;48.97;40.97;;;;;;;5.82;71.30;101076.13;2096934;28;20617;-66
2022/02/17 03:27:21;;;;;;;50.37;42.83;;;;;;;5.81;72.91;101076.50;2096945;28;20187;-66
2022/02/17 03:28:22;;;;;;;51.90;42.57;;;;;;;5.72;72.62;101087.84;2088481;28;20267;-67
2022/02/17 03:29:22;;;;;;;52.33;42.07;;;;;;;5.66;72.78;101077.63;2088423;28;20236;-66
2022/02/17 03:30:23;;;;;;;54.80;44.10;;;;;;;5.55;72.38;101082.28;2097457;28;20195;-66
2022/02/17 03:31:23;;;;;;;47.17;40.40;;;;;;;4.84;72.17;100990.53;2096656;28;20212;-66
2022/02/17 03:32:24;;;;;;;48.17;40.70;;;;;;;5.54;71.25;101075.22;2097565;28;20282;-66
2022/02/17 03:33:24;;;;;;;47.33;38.23;;;;;;;5.56;71.25;101079.16;2096897;28;20198;-66
2022/02/17 03:34:25;;;;;;;45.53;37.83;;;;;;;5.43;70.76;101055.94;2097283;28;20273;-66
2022/02/17 03:35:26;;;;;;;45.83;37.47;;;;;;;5.55;70.55;101077.56;2095946;28;20218;-67
2022/02/17 03:36:26;;;;;;;48.17;39.47;;;;;;;5.48;71.25;101076.78;2097369;28;20199;-67
2022/02/17 03:37:27;;;;;;;55.60;43.63;;;;;;;5.57;71.74;101080.72;2096715;28;20574;-67
2022/02/17 03:38:27;;;;;;;44.20;36.70;;;;;;;5.53;70.95;101073.66;2097463;28;20270;-66
2022/02/17 03:39:28;;;;;;;54.80;36.80;;;;;;;5.52;70.84;101075.59;2097304;28;20245;-67
2022/02/17 03:40:29;;;;;;;45.67;37.47;;;;;;;5.39;71.83;101063.38;2096925;28;20207;-67
2022/02/17 03:41:30;;;;;;;50.77;41.80;;;;;;;5.49;72.08;101075.59;2097124;28;20750;-66
2022/02/17 03:42:31;;;;;;;48.40;40.35;;;;;;;4.93;71.82;100982.72;2097355;28;20191;-67
2022/02/17 03:43:32;;;;;;;44.95;37.78;;;;;;;5.53;71.16;101066.19;2096458;28;20184;-67
2022/02/17 03:44:33;;;;;;;42.42;35.03;;;;;;;4.74;71.04;100965.75;2096743;28;20190;-66
2022/02/17 03:45:34;;;;;;;43.57;36.80;;;;;;;5.51;71.10;101068.53;2096417;28;20196;-67
2022/02/17 03:46:34;;;;;;;47.97;40.47;;;;;;;5.52;71.52;101072.84;2096109;28;20195;-66
2022/02/17 03:47:35;;;;;;;47.10;39.93;;;;;;;5.53;71.50;101071.69;2097269;28;20237;-66
2022/02/17 03:48:36;;;;;;;47.33;39.77;;;;;;;5.54;71.67;101077.97;2097234;28;20666;-67
2022/02/17 03:49:36;;;;;;;48.90;40.93;;;;;;;5.54;72.29;101076.00;2096555;28;20187;-66
2022/02/17 03:50:37;;;;;;;52.90;43.73;;;;;;;5.24;72.11;101025.25;2097343;28;20198;-66
2022/02/17 03:51:37;;;;;;;62.43;44.60;;;;;;;5.56;72.45;101081.09;2097206;28;20278;-66
2022/02/17 03:52:38;;;;;;;93.13;47.57;;;;;;;5.51;72.78;101084.22;2097419;28;20190;-67
2022/02/17 03:53:39;;;;;;;83.63;46.90;;;;;;;5.42;73.17;101076.34;2086979;28;20196;-66
2022/02/17 03:54:39;;;;;;;153.93;50.07;;;;;;;5.35;74.10;101075.53;2088385;28;20187;-67
2022/02/17 03:55:40;;;;;;;129.07;48.97;;;;;;;5.28;74.44;101067.25;2096415;28;20744;-66
2022/02/17 03:56:40;;;;;;;102.93;50.27;;;;;;;5.20;74.67;101071.13;2096386;28;20203;-67
2022/02/17 03:57:41;;;;;;;268.37;51.70;;;;;;;5.17;75.36;101072.69;2096886;28;20681;-67
2022/02/17 04:00:01;;;;;;;284.88;53.65;;;;;;;5.21;74.55;101076.25;2097373;28;20171;-66
2022/02/17 04:01:02;;;;;;;244.65;52.22;;;;;;;5.30;74.40;101081.41;2097231;28;20222;-67
2022/02/17 04:02:03;;;;;;;157.13;50.27;;;;;;;5.35;75.05;101076.34;2097350;28;20187;-67
2022/02/17 04:03:04;;;;;;;257.67;51.87;;;;;;;5.38;74.61;101075.53;2096534;28;20569;-67
2022/02/17 04:04:07;;;;;;;191.63;50.17;;;;;;;4.58;74.91;100962.53;2096772;28;20270;-66
2022/02/17 04:05:07;;;;;;;245.75;53.70;;;;;;;5.29;75.00;101077.84;2096323;28;20248;-66
2022/02/17 04:06:08;;;;;;;119.83;51.37;;;;;;;5.21;74.80;101047.97;2097309;28;20813;-67
2022/02/17 04:07:08;;;;;;;374.17;57.70;;;;;;;5.12;75.03;101034.59;2095992;28;20205;-67
2022/02/17 04:08:10;;;;;;;237.63;54.10;;;;;;;4.75;75.13;100972.81;2097366;28;20195;-67
2022/02/17 04:09:10;;;;;;;304.58;55.00;;;;;;;5.19;74.62;101058.59;2097029;28;20172;-67
2022/02/17 04:10:11;;;;;;;352.37;56.73;;;;;;;5.08;74.85;101057.75;2097298;28;20283;-67
2022/02/17 04:11:11;;;;;;;146.33;52.23;;;;;;;4.51;74.93;100968.75;2097028;28;20194;-66
2022/02/17 04:12:13;;;;;;;210.40;51.03;;;;;;;4.21;74.54;100943.47;2096537;28;20196;-66
2022/02/17 04:13:14;;;;;;;130.20;50.75;;;;;;;4.94;74.58;101052.97;2096804;28;20175;-66
2022/02/17 04:14:15;;;;;;;218.73;49.67;;;;;;;5.06;75.08;101057.31;2096757;28;20188;-67
2022/02/17 04:15:15;;;;;;;112.80;48.73;;;;;;;5.14;75.22;101056.97;2087319;28;20673;-66
2022/02/17 04:16:17;;;;;;;242.13;50.00;;;;;;;5.19;74.01;101050.34;2087753;28;20188;-66
2022/02/17 04:17:18;;;;;;;188.48;48.90;;;;;;;5.09;74.23;101054.63;2096359;28;20348;-66
2022/02/17 04:18:18;;;;;;;186.70;45.70;;;;;;;4.80;74.62;101010.88;2097227;28;20588;-67
2022/02/17 04:19:19;;;;;;;217.47;45.60;;;;;;;5.02;74.81;101056.53;2097105;28;20237;-67
2022/02/17 04:20:19;;;;;;;176.77;43.67;;;;;;;4.23;74.63;100929.38;2096920;28;20259;-66
2022/02/17 04:21:22;;;;;;;140.80;45.03;;;;;;;5.00;74.39;101047.88;2097299;28;20561;-67
2022/02/17 04:22:23;;;;;;;161.00;44.70;;;;;;;4.97;74.34;101062.41;2097086;28;20274;-67
2022/02/17 04:23:23;;;;;;;110.37;42.23;;;;;;;4.62;74.30;100980.59;2096718;28;20191;-66
2022/02/17 04:24:24;;;;;;;225.80;47.87;;;;;;;5.11;74.71;101052.25;2097100;28;20688;-66
2022/02/17 04:25:24;;;;;;;155.60;43.90;;;;;;;5.12;73.84;101048.34;2095737;28;20214;-67
2022/02/17 04:26:25;;;;;;;133.33;43.67;;;;;;;5.15;73.68;101046.78;2097144;28;20236;-67
2022/02/17 04:27:26;;;;;;;171.83;45.80;;;;;;;5.01;73.58;101017.28;2096480;28;20195;-66
2022/02/17 04:28:27;;;;;;;139.80;44.93;;;;;;;5.19;72.90;101045.63;2097192;28;20221;-67
2022/02/17 04:29:27;;;;;;;143.83;43.60;;;;;;;5.17;72.86;101042.47;2096271;28;20182;-67
2022/02/17 04:30:28;;;;;;;107.27;42.50;;;;;;;5.03;72.64;101028.66;2097197;28;20660;-66
2022/02/17 04:31:28;;;;;;;147.87;42.37;;;;;;;5.13;72.54;101040.91;2096935;28;20673;-66
2022/02/17 04:32:29;;;;;;;137.47;41.50;;;;;;;5.12;72.10;101050.31;2097194;28;20195;-67
2022/02/17 04:33:29;;;;;;;133.83;41.30;;;;;;;5.11;72.34;101048.72;2096379;28;20179;-66
2022/02/17 04:34:30;;;;;;;129.27;41.33;;;;;;;5.13;71.84;101054.63;2096462;28;20692;-67
2022/02/17 04:35:30;;;;;;;121.00;42.63;;;;;;;5.13;72.02;101043.66;2096299;28;20656;-67
2022/02/17 04:36:31;;;;;;;105.10;40.17;;;;;;;5.08;72.05;101028.31;2096699;28;20218;-66
2022/02/17 04:37:32;;;;;;;139.00;38.83;;;;;;;5.16;72.05;101045.59;2096936;28;20210;-67
2022/02/17 04:38:33;;;;;;;78.93;38.80;;;;;;;4.24;72.18;100893.34;2096482;28;20704;-67
2022/02/17 04:39:33;;;;;;;74.97;38.28;;;;;;;5.14;72.08;101029.50;2096907;28;20207;-67
2022/02/17 04:43:12;;;;;;;80.35;38.10;;;;;;;5.15;71.75;101030.31;2088084;28;20192;-67
2022/02/17 04:44:12;;;;;;;139.47;39.63;;;;;;;5.15;71.75;101033.03;2088243;28;20670;-67